sensor_id;sensor_type;location;lat;lon;timestamp;P1;durP1;ratioP1;P2;durP2;ratioP2
6223;SDS011;3145;42.726;23.342;2023-12-22T00:01:25;112.37;;;62.43;;
6223;SDS011;3145;42.726;23.342;2023-12-22T00:03:53;110.87;;;65.83;;
6223;SDS011;3145;42.726;23.342;2023-12-22T00:06:20;119.97;;;66.07;;
6223;SDS011;3145;42.726;23.342;2023-12-22T00:08:47;127.50;;;68.33;;
6223;SDS011;3145;42.726;23.342;2023-12-22T00:11:13;130.93;;;73.60;;
6223;SDS011;3145;42.726;23.342;2023-12-22T00:13:40;142.40;;;74.90;;
6223;SDS011;3145;42.726;23.342;2023-12-22T00:16:07;135.00;;;75.13;;
6223;SDS011;3145;42.726;23.342;2023-12-22T00:18:33;134.30;;;72.43;;
6223;SDS011;3145;42.726;23.342;2023-12-22T00:21:02;127.77;;;70.10;;
6223;SDS011;3145;42.726;23.342;2023-12-22T00:23:28;125.83;;;77.90;;
6223;SDS011;3145;42.726;23.342;2023-12-22T00:25:57;133.30;;;71.13;;
6223;SDS011;3145;42.726;23.342;2023-12-22T00:28:24;130.30;;;69.87;;
6223;SDS011;3145;42.726;23.342;2023-12-22T00:30:51;139.27;;;74.47;;
6223;SDS011;3145;42.726;23.342;2023-12-22T00:33:17;136.50;;;72.80;;
6223;SDS011;3145;42.726;23.342;2023-12-22T00:35:44;130.87;;;68.27;;
6223;SDS011;3145;42.726;23.342;2023-12-22T00:38:12;128.97;;;70.37;;
6223;SDS011;3145;42.726;23.342;2023-12-22T00:40:39;125.10;;;69.30;;
6223;SDS011;3145;42.726;23.342;2023-12-22T00:43:05;122.23;;;62.90;;
6223;SDS011;3145;42.726;23.342;2023-12-22T00:45:32;116.70;;;64.53;;
6223;SDS011;3145;42.726;23.342;2023-12-22T00:47:59;119.63;;;66.37;;
6223;SDS011;3145;42.726;23.342;2023-12-22T00:50:25;115.20;;;64.40;;
6223;SDS011;3145;42.726;23.342;2023-12-22T00:52:52;115.47;;;66.23;;
6223;SDS011;3145;42.726;23.342;2023-12-22T00:55:20;123.47;;;69.03;;
6223;SDS011;3145;42.726;23.342;2023-12-22T00:57:47;115.90;;;64.93;;
6223;SDS011;3145;42.726;23.342;2023-12-22T01:00:14;122.67;;;65.80;;
6223;SDS011;3145;42.726;23.342;2023-12-22T01:02:41;106.37;;;59.20;;
6223;SDS011;3145;42.726;23.342;2023-12-22T01:05:09;115.23;;;64.30;;
6223;SDS011;3145;42.726;23.342;2023-12-22T01:07:35;116.80;;;63.27;;
6223;SDS011;3145;42.726;23.342;2023-12-22T01:10:02;88.67;;;52.17;;
6223;SDS011;3145;42.726;23.342;2023-12-22T01:12:31;92.93;;;52.37;;
6223;SDS011;3145;42.726;23.342;2023-12-22T01:14:58;78.27;;;47.63;;
6223;SDS011;3145;42.726;23.342;2023-12-22T01:17:25;71.27;;;45.17;;
6223;SDS011;3145;42.726;23.342;2023-12-22T01:19:51;70.33;;;41.63;;
6223;SDS011;3145;42.726;23.342;2023-12-22T01:22:18;60.10;;;39.30;;
6223;SDS011;3145;42.726;23.342;2023-12-22T01:24:45;62.90;;;38.67;;
6223;SDS011;3145;42.726;23.342;2023-12-22T01:27:11;61.63;;;39.10;;
6223;SDS011;3145;42.726;23.342;2023-12-22T01:29:40;58.40;;;37.37;;
6223;SDS011;3145;42.726;23.342;2023-12-22T01:32:06;65.97;;;39.53;;
6223;SDS011;3145;42.726;23.342;2023-12-22T01:34:33;60.60;;;39.60;;
6223;SDS011;3145;42.726;23.342;2023-12-22T01:37:00;56.07;;;37.50;;
6223;SDS011;3145;42.726;23.342;2023-12-22T01:39:27;57.83;;;36.53;;
6223;SDS011;3145;42.726;23.342;2023-12-22T01:41:53;66.57;;;39.70;;
6223;SDS011;3145;42.726;23.342;2023-12-22T01:44:20;64.77;;;43.60;;
6223;SDS011;3145;42.726;23.342;2023-12-22T01:46:48;75.80;;;46.10;;
6223;SDS011;3145;42.726;23.342;2023-12-22T01:49:16;88.67;;;50.90;;
6223;SDS011;3145;42.726;23.342;2023-12-22T01:51:43;92.43;;;48.93;;
6223;SDS011;3145;42.726;23.342;2023-12-22T01:54:10;86.57;;;49.33;;
6223;SDS011;3145;42.726;23.342;2023-12-22T01:56:38;98.90;;;54.40;;
6223;SDS011;3145;42.726;23.342;2023-12-22T01:59:04;74.27;;;45.03;;
6223;SDS011;3145;42.726;23.342;2023-12-22T02:01:32;76.80;;;46.57;;
6223;SDS011;3145;42.726;23.342;2023-12-22T02:04:01;67.93;;;41.67;;
6223;SDS011;3145;42.726;23.342;2023-12-22T02:06:29;61.80;;;39.70;;
6223;SDS011;3145;42.726;23.342;2023-12-22T02:08:56;50.27;;;33.03;;
6223;SDS011;3145;42.726;23.342;2023-12-22T02:11:23;50.97;;;33.80;;
6223;SDS011;3145;42.726;23.342;2023-12-22T02:13:50;49.90;;;32.60;;
6223;SDS011;3145;42.726;23.342;2023-12-22T02:16:18;45.17;;;31.50;;
6223;SDS011;3145;42.726;23.342;2023-12-22T02:18:47;47.57;;;31.13;;
6223;SDS011;3145;42.726;23.342;2023-12-22T02:21:18;59.37;;;30.43;;
6223;SDS011;3145;42.726;23.342;2023-12-22T02:23:48;50.60;;;32.00;;
6223;SDS011;3145;42.726;23.342;2023-12-22T02:26:16;46.07;;;29.67;;
6223;SDS011;3145;42.726;23.342;2023-12-22T02:28:48;48.03;;;31.33;;
6223;SDS011;3145;42.726;23.342;2023-12-22T02:31:17;47.10;;;30.97;;
6223;SDS011;3145;42.726;23.342;2023-12-22T02:33:48;47.63;;;29.87;;
6223;SDS011;3145;42.726;23.342;2023-12-22T02:36:20;47.90;;;32.23;;
6223;SDS011;3145;42.726;23.342;2023-12-22T02:38:49;46.47;;;30.87;;
6223;SDS011;3145;42.726;23.342;2023-12-22T02:41:19;44.87;;;30.73;;
6223;SDS011;3145;42.726;23.342;2023-12-22T02:43:46;43.73;;;28.93;;
6223;SDS011;3145;42.726;23.342;2023-12-22T02:46:13;51.23;;;36.07;;
6223;SDS011;3145;42.726;23.342;2023-12-22T02:48:40;44.53;;;30.93;;
6223;SDS011;3145;42.726;23.342;2023-12-22T02:51:07;48.60;;;33.47;;
6223;SDS011;3145;42.726;23.342;2023-12-22T02:53:34;54.30;;;33.53;;
6223;SDS011;3145;42.726;23.342;2023-12-22T02:56:02;49.30;;;34.20;;
6223;SDS011;3145;42.726;23.342;2023-12-22T02:58:29;57.03;;;37.57;;
6223;SDS011;3145;42.726;23.342;2023-12-22T03:00:56;56.50;;;34.13;;
6223;SDS011;3145;42.726;23.342;2023-12-22T03:03:22;52.77;;;35.77;;
6223;SDS011;3145;42.726;23.342;2023-12-22T03:05:49;48.50;;;32.77;;
6223;SDS011;3145;42.726;23.342;2023-12-22T03:08:16;50.20;;;32.10;;
6223;SDS011;3145;42.726;23.342;2023-12-22T03:10:42;45.93;;;30.87;;
6223;SDS011;3145;42.726;23.342;2023-12-22T03:13:10;50.27;;;32.33;;
6223;SDS011;3145;42.726;23.342;2023-12-22T03:15:37;63.70;;;33.47;;
6223;SDS011;3145;42.726;23.342;2023-12-22T03:18:04;45.53;;;29.10;;
6223;SDS011;3145;42.726;23.342;2023-12-22T03:20:30;43.30;;;28.67;;
6223;SDS011;3145;42.726;23.342;2023-12-22T03:22:57;54.03;;;32.27;;
6223;SDS011;3145;42.726;23.342;2023-12-22T03:25:24;137.83;;;56.00;;
6223;SDS011;3145;42.726;23.342;2023-12-22T03:27:51;56.13;;;33.37;;
6223;SDS011;3145;42.726;23.342;2023-12-22T03:30:19;87.30;;;41.93;;
6223;SDS011;3145;42.726;23.342;2023-12-22T03:32:45;204.53;;;82.53;;
6223;SDS011;3145;42.726;23.342;2023-12-22T03:35:12;115.17;;;50.87;;
6223;SDS011;3145;42.726;23.342;2023-12-22T03:37:39;74.90;;;39.03;;
6223;SDS011;3145;42.726;23.342;2023-12-22T03:40:06;109.97;;;48.63;;
6223;SDS011;3145;42.726;23.342;2023-12-22T03:42:34;70.10;;;38.40;;
6223;SDS011;3145;42.726;23.342;2023-12-22T03:45:01;63.87;;;35.17;;
6223;SDS011;3145;42.726;23.342;2023-12-22T03:47:29;44.30;;;29.80;;
6223;SDS011;3145;42.726;23.342;2023-12-22T03:49:56;67.67;;;37.50;;
6223;SDS011;3145;42.726;23.342;2023-12-22T03:52:23;60.27;;;35.33;;
6223;SDS011;3145;42.726;23.342;2023-12-22T03:54:49;50.93;;;33.87;;
6223;SDS011;3145;42.726;23.342;2023-12-22T03:57:16;55.53;;;34.33;;
6223;SDS011;3145;42.726;23.342;2023-12-22T03:59:43;60.17;;;37.93;;
6223;SDS011;3145;42.726;23.342;2023-12-22T04:02:09;56.80;;;36.30;;
6223;SDS011;3145;42.726;23.342;2023-12-22T04:04:38;54.20;;;34.97;;
6223;SDS011;3145;42.726;23.342;2023-12-22T04:07:05;60.47;;;35.00;;
6223;SDS011;3145;42.726;23.342;2023-12-22T04:09:32;64.20;;;37.27;;
6223;SDS011;3145;42.726;23.342;2023-12-22T04:11:59;57.30;;;36.33;;
6223;SDS011;3145;42.726;23.342;2023-12-22T04:14:25;53.83;;;34.70;;
6223;SDS011;3145;42.726;23.342;2023-12-22T04:16:52;56.03;;;35.10;;
6223;SDS011;3145;42.726;23.342;2023-12-22T04:19:19;49.97;;;34.37;;
6223;SDS011;3145;42.726;23.342;2023-12-22T04:21:47;57.63;;;35.20;;
6223;SDS011;3145;42.726;23.342;2023-12-22T04:24:13;53.47;;;34.20;;
6223;SDS011;3145;42.726;23.342;2023-12-22T04:26:40;60.13;;;36.57;;
6223;SDS011;3145;42.726;23.342;2023-12-22T04:29:07;56.17;;;37.67;;
6223;SDS011;3145;42.726;23.342;2023-12-22T04:31:34;56.90;;;37.27;;
6223;SDS011;3145;42.726;23.342;2023-12-22T04:34:00;54.87;;;36.90;;
6223;SDS011;3145;42.726;23.342;2023-12-22T04:36:27;65.17;;;38.63;;
6223;SDS011;3145;42.726;23.342;2023-12-22T04:38:55;57.03;;;37.90;;
6223;SDS011;3145;42.726;23.342;2023-12-22T04:41:22;66.70;;;41.30;;
6223;SDS011;3145;42.726;23.342;2023-12-22T04:43:48;60.27;;;42.53;;
6223;SDS011;3145;42.726;23.342;2023-12-22T04:46:15;84.30;;;47.90;;
6223;SDS011;3145;42.726;23.342;2023-12-22T04:48:42;68.93;;;43.20;;
6223;SDS011;3145;42.726;23.342;2023-12-22T04:51:08;66.00;;;40.97;;
6223;SDS011;3145;42.726;23.342;2023-12-22T04:53:35;70.57;;;44.87;;
6223;SDS011;3145;42.726;23.342;2023-12-22T04:56:03;71.13;;;44.87;;
6223;SDS011;3145;42.726;23.342;2023-12-22T04:58:30;66.73;;;42.23;;
6223;SDS011;3145;42.726;23.342;2023-12-22T05:00:57;67.60;;;40.87;;
6223;SDS011;3145;42.726;23.342;2023-12-22T05:03:24;61.70;;;40.50;;
6223;SDS011;3145;42.726;23.342;2023-12-22T05:05:51;62.33;;;42.57;;
6223;SDS011;3145;42.726;23.342;2023-12-22T05:08:17;77.63;;;45.37;;
6223;SDS011;3145;42.726;23.342;2023-12-22T05:10:44;68.10;;;43.27;;
6223;SDS011;3145;42.726;23.342;2023-12-22T05:13:12;68.03;;;46.43;;
6223;SDS011;3145;42.726;23.342;2023-12-22T05:15:39;102.20;;;61.57;;
6223;SDS011;3145;42.726;23.342;2023-12-22T05:18:05;89.33;;;58.30;;
6223;SDS011;3145;42.726;23.342;2023-12-22T05:20:32;87.73;;;56.20;;
6223;SDS011;3145;42.726;23.342;2023-12-22T05:22:59;104.00;;;61.47;;
6223;SDS011;3145;42.726;23.342;2023-12-22T05:25:26;96.57;;;60.60;;
6223;SDS011;3145;42.726;23.342;2023-12-22T05:27:54;112.33;;;65.30;;
6223;SDS011;3145;42.726;23.342;2023-12-22T05:30:22;136.07;;;80.70;;
6223;SDS011;3145;42.726;23.342;2023-12-22T05:32:48;116.23;;;70.03;;
6223;SDS011;3145;42.726;23.342;2023-12-22T05:35:15;92.83;;;59.60;;
6223;SDS011;3145;42.726;23.342;2023-12-22T05:37:42;93.03;;;55.47;;
6223;SDS011;3145;42.726;23.342;2023-12-22T05:40:09;85.97;;;54.27;;
6223;SDS011;3145;42.726;23.342;2023-12-22T05:42:36;87.97;;;56.33;;
6223;SDS011;3145;42.726;23.342;2023-12-22T05:45:04;147.90;;;76.37;;
6223;SDS011;3145;42.726;23.342;2023-12-22T05:47:33;155.20;;;85.17;;
6223;SDS011;3145;42.726;23.342;2023-12-22T05:49:59;69.27;;;43.43;;
6223;SDS011;3145;42.726;23.342;2023-12-22T05:52:26;65.03;;;39.73;;
6223;SDS011;3145;42.726;23.342;2023-12-22T05:54:53;57.97;;;38.87;;
6223;SDS011;3145;42.726;23.342;2023-12-22T05:57:20;59.00;;;36.53;;
6223;SDS011;3145;42.726;23.342;2023-12-22T05:59:47;53.67;;;34.03;;
6223;SDS011;3145;42.726;23.342;2023-12-22T06:02:13;69.50;;;44.33;;
6223;SDS011;3145;42.726;23.342;2023-12-22T06:04:41;59.33;;;41.50;;
6223;SDS011;3145;42.726;23.342;2023-12-22T06:07:09;69.93;;;46.80;;
6223;SDS011;3145;42.726;23.342;2023-12-22T06:09:36;110.87;;;55.33;;
6223;SDS011;3145;42.726;23.342;2023-12-22T06:12:03;77.83;;;44.33;;
6223;SDS011;3145;42.726;23.342;2023-12-22T06:14:30;118.73;;;56.53;;
6223;SDS011;3145;42.726;23.342;2023-12-22T06:16:57;96.60;;;53.57;;
6223;SDS011;3145;42.726;23.342;2023-12-22T06:19:24;100.57;;;53.40;;
6223;SDS011;3145;42.726;23.342;2023-12-22T06:21:54;86.30;;;51.80;;
6223;SDS011;3145;42.726;23.342;2023-12-22T06:24:22;87.67;;;48.67;;
6223;SDS011;3145;42.726;23.342;2023-12-22T06:26:48;77.00;;;45.10;;
6223;SDS011;3145;42.726;23.342;2023-12-22T06:29:15;65.33;;;43.10;;
6223;SDS011;3145;42.726;23.342;2023-12-22T06:31:42;70.77;;;45.13;;
6223;SDS011;3145;42.726;23.342;2023-12-22T06:34:09;74.40;;;45.50;;
6223;SDS011;3145;42.726;23.342;2023-12-22T06:36:35;70.47;;;44.47;;
6223;SDS011;3145;42.726;23.342;2023-12-22T06:39:03;71.20;;;43.30;;
6223;SDS011;3145;42.726;23.342;2023-12-22T06:41:30;76.23;;;46.53;;
6223;SDS011;3145;42.726;23.342;2023-12-22T06:43:57;111.37;;;68.20;;
6223;SDS011;3145;42.726;23.342;2023-12-22T06:46:25;101.63;;;62.13;;
6223;SDS011;3145;42.726;23.342;2023-12-22T06:48:53;100.23;;;58.63;;
6223;SDS011;3145;42.726;23.342;2023-12-22T06:51:20;104.13;;;59.33;;
6223;SDS011;3145;42.726;23.342;2023-12-22T06:53:47;108.10;;;64.67;;
6223;SDS011;3145;42.726;23.342;2023-12-22T06:56:17;128.67;;;72.30;;
6223;SDS011;3145;42.726;23.342;2023-12-22T06:58:45;147.00;;;80.33;;
6223;SDS011;3145;42.726;23.342;2023-12-22T07:01:17;153.77;;;82.73;;
6223;SDS011;3145;42.726;23.342;2023-12-22T07:03:45;164.73;;;90.23;;
6223;SDS011;3145;42.726;23.342;2023-12-22T07:06:13;135.87;;;75.13;;
6223;SDS011;3145;42.726;23.342;2023-12-22T07:08:39;145.87;;;79.83;;
6223;SDS011;3145;42.726;23.342;2023-12-22T07:11:07;153.23;;;82.73;;
6223;SDS011;3145;42.726;23.342;2023-12-22T07:13:35;123.87;;;70.27;;
6223;SDS011;3145;42.726;23.342;2023-12-22T07:16:02;132.43;;;74.37;;
6223;SDS011;3145;42.726;23.342;2023-12-22T07:18:29;134.40;;;74.50;;
6223;SDS011;3145;42.726;23.342;2023-12-22T07:20:56;146.33;;;86.27;;
6223;SDS011;3145;42.726;23.342;2023-12-22T07:23:23;143.67;;;88.23;;
6223;SDS011;3145;42.726;23.342;2023-12-22T07:25:50;155.23;;;86.90;;
6223;SDS011;3145;42.726;23.342;2023-12-22T07:28:17;148.33;;;88.40;;
6223;SDS011;3145;42.726;23.342;2023-12-22T07:30:45;142.00;;;81.83;;
6223;SDS011;3145;42.726;23.342;2023-12-22T07:33:11;145.37;;;83.80;;
6223;SDS011;3145;42.726;23.342;2023-12-22T07:35:38;150.07;;;86.83;;
6223;SDS011;3145;42.726;23.342;2023-12-22T07:38:05;169.10;;;98.80;;
6223;SDS011;3145;42.726;23.342;2023-12-22T07:40:32;192.27;;;118.13;;
6223;SDS011;3145;42.726;23.342;2023-12-22T07:42:58;225.17;;;126.40;;
6223;SDS011;3145;42.726;23.342;2023-12-22T07:45:25;630.53;;;367.10;;
6223;SDS011;3145;42.726;23.342;2023-12-22T07:47:55;295.77;;;158.77;;
6223;SDS011;3145;42.726;23.342;2023-12-22T07:50:21;419.80;;;215.63;;
6223;SDS011;3145;42.726;23.342;2023-12-22T07:52:48;257.57;;;142.17;;
6223;SDS011;3145;42.726;23.342;2023-12-22T07:55:15;291.27;;;166.53;;
6223;SDS011;3145;42.726;23.342;2023-12-22T07:57:41;251.93;;;145.73;;
6223;SDS011;3145;42.726;23.342;2023-12-22T08:00:09;241.60;;;143.57;;
6223;SDS011;3145;42.726;23.342;2023-12-22T08:02:36;330.40;;;179.33;;
6223;SDS011;3145;42.726;23.342;2023-12-22T08:05:05;198.90;;;120.13;;
6223;SDS011;3145;42.726;23.342;2023-12-22T08:07:31;236.43;;;140.80;;
6223;SDS011;3145;42.726;23.342;2023-12-22T08:09:58;129.60;;;76.37;;
6223;SDS011;3145;42.726;23.342;2023-12-22T08:12:26;185.53;;;105.37;;
6223;SDS011;3145;42.726;23.342;2023-12-22T08:14:53;137.70;;;80.17;;
6223;SDS011;3145;42.726;23.342;2023-12-22T08:17:19;154.10;;;86.80;;
6223;SDS011;3145;42.726;23.342;2023-12-22T08:19:46;120.33;;;66.27;;
6223;SDS011;3145;42.726;23.342;2023-12-22T08:22:14;171.27;;;96.40;;
6223;SDS011;3145;42.726;23.342;2023-12-22T08:24:41;161.27;;;89.43;;
6223;SDS011;3145;42.726;23.342;2023-12-22T08:27:08;200.20;;;115.57;;
6223;SDS011;3145;42.726;23.342;2023-12-22T08:29:35;187.83;;;106.47;;
6223;SDS011;3145;42.726;23.342;2023-12-22T08:32:02;199.93;;;118.77;;
6223;SDS011;3145;42.726;23.342;2023-12-22T08:34:29;202.73;;;113.73;;
6223;SDS011;3145;42.726;23.342;2023-12-22T08:36:56;210.33;;;124.40;;
6223;SDS011;3145;42.726;23.342;2023-12-22T08:39:24;181.80;;;109.73;;
6223;SDS011;3145;42.726;23.342;2023-12-22T08:41:51;161.40;;;97.13;;
6223;SDS011;3145;42.726;23.342;2023-12-22T08:44:18;201.07;;;118.37;;
6223;SDS011;3145;42.726;23.342;2023-12-22T08:46:45;188.60;;;109.10;;
6223;SDS011;3145;42.726;23.342;2023-12-22T08:49:12;169.30;;;105.47;;
6223;SDS011;3145;42.726;23.342;2023-12-22T08:51:38;169.47;;;101.60;;
6223;SDS011;3145;42.726;23.342;2023-12-22T08:54:06;187.27;;;115.20;;
6223;SDS011;3145;42.726;23.342;2023-12-22T08:56:35;179.90;;;106.07;;
6223;SDS011;3145;42.726;23.342;2023-12-22T08:59:02;130.27;;;78.60;;
6223;SDS011;3145;42.726;23.342;2023-12-22T09:01:28;142.10;;;85.27;;
6223;SDS011;3145;42.726;23.342;2023-12-22T09:03:55;165.93;;;96.37;;
6223;SDS011;3145;42.726;23.342;2023-12-22T09:06:22;154.10;;;81.27;;
6223;SDS011;3145;42.726;23.342;2023-12-22T09:08:50;131.03;;;71.07;;
6223;SDS011;3145;42.726;23.342;2023-12-22T09:11:18;117.30;;;69.57;;
6223;SDS011;3145;42.726;23.342;2023-12-22T09:13:47;119.27;;;65.50;;
6223;SDS011;3145;42.726;23.342;2023-12-22T09:16:16;107.87;;;61.57;;
6223;SDS011;3145;42.726;23.342;2023-12-22T09:18:47;120.60;;;71.27;;
6223;SDS011;3145;42.726;23.342;2023-12-22T09:21:14;50.53;;;34.37;;
6223;SDS011;3145;42.726;23.342;2023-12-22T09:23:42;33.47;;;23.93;;
6223;SDS011;3145;42.726;23.342;2023-12-22T09:26:11;28.83;;;21.90;;
6223;SDS011;3145;42.726;23.342;2023-12-22T09:28:38;28.17;;;18.70;;
6223;SDS011;3145;42.726;23.342;2023-12-22T09:31:07;23.83;;;19.47;;
6223;SDS011;3145;42.726;23.342;2023-12-22T09:33:34;30.47;;;20.40;;
6223;SDS011;3145;42.726;23.342;2023-12-22T09:36:01;31.97;;;20.83;;
6223;SDS011;3145;42.726;23.342;2023-12-22T09:38:28;269.83;;;128.00;;
6223;SDS011;3145;42.726;23.342;2023-12-22T09:40:55;52.37;;;32.43;;
6223;SDS011;3145;42.726;23.342;2023-12-22T09:43:22;28.60;;;21.77;;
6223;SDS011;3145;42.726;23.342;2023-12-22T09:45:49;27.77;;;20.80;;
6223;SDS011;3145;42.726;23.342;2023-12-22T09:48:18;25.20;;;20.37;;
6223;SDS011;3145;42.726;23.342;2023-12-22T09:50:52;30.57;;;20.47;;
6223;SDS011;3145;42.726;23.342;2023-12-22T09:53:19;33.43;;;21.53;;
6223;SDS011;3145;42.726;23.342;2023-12-22T09:55:46;26.47;;;19.53;;
6223;SDS011;3145;42.726;23.342;2023-12-22T09:58:15;28.73;;;19.13;;
6223;SDS011;3145;42.726;23.342;2023-12-22T10:00:42;29.00;;;20.30;;
6223;SDS011;3145;42.726;23.342;2023-12-22T10:03:10;32.47;;;23.33;;
6223;SDS011;3145;42.726;23.342;2023-12-22T10:05:39;27.10;;;22.47;;
6223;SDS011;3145;42.726;23.342;2023-12-22T10:08:06;32.77;;;22.37;;
6223;SDS011;3145;42.726;23.342;2023-12-22T10:10:35;33.23;;;26.00;;
6223;SDS011;3145;42.726;23.342;2023-12-22T10:13:04;36.43;;;22.60;;
6223;SDS011;3145;42.726;23.342;2023-12-22T10:15:34;30.53;;;20.33;;
6223;SDS011;3145;42.726;23.342;2023-12-22T10:18:01;32.80;;;20.83;;
6223;SDS011;3145;42.726;23.342;2023-12-22T10:20:28;22.90;;;18.80;;
6223;SDS011;3145;42.726;23.342;2023-12-22T10:22:56;23.17;;;19.73;;
6223;SDS011;3145;42.726;23.342;2023-12-22T10:25:26;24.40;;;19.33;;
6223;SDS011;3145;42.726;23.342;2023-12-22T10:27:54;29.37;;;22.50;;
6223;SDS011;3145;42.726;23.342;2023-12-22T10:30:21;28.93;;;20.13;;
6223;SDS011;3145;42.726;23.342;2023-12-22T10:32:49;20.83;;;17.73;;
6223;SDS011;3145;42.726;23.342;2023-12-22T10:35:16;19.73;;;16.40;;
6223;SDS011;3145;42.726;23.342;2023-12-22T10:37:43;21.83;;;14.87;;
6223;SDS011;3145;42.726;23.342;2023-12-22T10:40:13;13.10;;;11.70;;
6223;SDS011;3145;42.726;23.342;2023-12-22T10:42:40;12.17;;;10.70;;
6223;SDS011;3145;42.726;23.342;2023-12-22T10:45:07;10.70;;;9.70;;
6223;SDS011;3145;42.726;23.342;2023-12-22T10:47:34;9.03;;;7.73;;
6223;SDS011;3145;42.726;23.342;2023-12-22T10:50:02;9.77;;;8.70;;
6223;SDS011;3145;42.726;23.342;2023-12-22T10:52:29;16.23;;;14.00;;
6223;SDS011;3145;42.726;23.342;2023-12-22T10:54:56;100.00;;;38.97;;
6223;SDS011;3145;42.726;23.342;2023-12-22T10:57:24;54.03;;;25.97;;
6223;SDS011;3145;42.726;23.342;2023-12-22T10:59:52;25.17;;;13.00;;
6223;SDS011;3145;42.726;23.342;2023-12-22T11:02:22;8.33;;;7.70;;
6223;SDS011;3145;42.726;23.342;2023-12-22T11:05:00;21.23;;;16.13;;
6223;SDS011;3145;42.726;23.342;2023-12-22T11:07:30;10.10;;;7.83;;
6223;SDS011;3145;42.726;23.342;2023-12-22T11:10:01;8.90;;;7.90;;
6223;SDS011;3145;42.726;23.342;2023-12-22T11:12:31;11.33;;;7.23;;
6223;SDS011;3145;42.726;23.342;2023-12-22T11:14:59;9.73;;;8.03;;
6223;SDS011;3145;42.726;23.342;2023-12-22T11:17:27;13.90;;;11.67;;
6223;SDS011;3145;42.726;23.342;2023-12-22T11:19:56;11.40;;;10.40;;
6223;SDS011;3145;42.726;23.342;2023-12-22T11:22:24;12.33;;;11.03;;
6223;SDS011;3145;42.726;23.342;2023-12-22T11:24:51;112.60;;;59.37;;
6223;SDS011;3145;42.726;23.342;2023-12-22T11:27:20;18.90;;;12.10;;
6223;SDS011;3145;42.726;23.342;2023-12-22T11:29:48;14.23;;;11.90;;
6223;SDS011;3145;42.726;23.342;2023-12-22T11:32:17;48.47;;;28.40;;
6223;SDS011;3145;42.726;23.342;2023-12-22T11:34:44;13.90;;;11.47;;
6223;SDS011;3145;42.726;23.342;2023-12-22T11:37:12;11.73;;;10.00;;
6223;SDS011;3145;42.726;23.342;2023-12-22T11:39:40;9.53;;;8.17;;
6223;SDS011;3145;42.726;23.342;2023-12-22T11:42:08;8.37;;;7.67;;
6223;SDS011;3145;42.726;23.342;2023-12-22T11:44:36;7.73;;;7.23;;
6223;SDS011;3145;42.726;23.342;2023-12-22T11:47:05;9.07;;;8.17;;
6223;SDS011;3145;42.726;23.342;2023-12-22T11:49:33;10.30;;;9.40;;
6223;SDS011;3145;42.726;23.342;2023-12-22T11:52:09;17.07;;;11.57;;
6223;SDS011;3145;42.726;23.342;2023-12-22T11:54:48;11.77;;;9.60;;
6223;SDS011;3145;42.726;23.342;2023-12-22T11:57:28;10.20;;;9.23;;
6223;SDS011;3145;42.726;23.342;2023-12-22T11:59:56;10.30;;;9.30;;
6223;SDS011;3145;42.726;23.342;2023-12-22T12:02:25;9.23;;;8.27;;
6223;SDS011;3145;42.726;23.342;2023-12-22T12:04:52;11.17;;;10.07;;
6223;SDS011;3145;42.726;23.342;2023-12-22T12:07:38;15.90;;;12.63;;
6223;SDS011;3145;42.726;23.342;2023-12-22T12:10:06;8.30;;;7.50;;
6223;SDS011;3145;42.726;23.342;2023-12-22T12:12:35;7.20;;;6.63;;
6223;SDS011;3145;42.726;23.342;2023-12-22T12:15:12;7.77;;;6.73;;
6223;SDS011;3145;42.726;23.342;2023-12-22T12:17:44;6.47;;;6.00;;
6223;SDS011;3145;42.726;23.342;2023-12-22T12:20:11;8.00;;;7.20;;
6223;SDS011;3145;42.726;23.342;2023-12-22T12:22:38;7.93;;;7.23;;
6223;SDS011;3145;42.726;23.342;2023-12-22T12:25:08;6.83;;;6.23;;
6223;SDS011;3145;42.726;23.342;2023-12-22T12:27:36;7.73;;;6.17;;
6223;SDS011;3145;42.726;23.342;2023-12-22T12:30:07;6.03;;;5.57;;
6223;SDS011;3145;42.726;23.342;2023-12-22T12:32:37;8.27;;;6.33;;
6223;SDS011;3145;42.726;23.342;2023-12-22T12:35:05;10.00;;;8.53;;
6223;SDS011;3145;42.726;23.342;2023-12-22T12:37:33;9.30;;;7.87;;
6223;SDS011;3145;42.726;23.342;2023-12-22T12:40:01;7.07;;;6.47;;
6223;SDS011;3145;42.726;23.342;2023-12-22T12:42:29;9.30;;;7.90;;
6223;SDS011;3145;42.726;23.342;2023-12-22T12:44:57;6.20;;;5.80;;
6223;SDS011;3145;42.726;23.342;2023-12-22T12:47:24;6.77;;;6.13;;
6223;SDS011;3145;42.726;23.342;2023-12-22T12:49:57;7.47;;;6.87;;
6223;SDS011;3145;42.726;23.342;2023-12-22T12:52:25;6.70;;;6.20;;
6223;SDS011;3145;42.726;23.342;2023-12-22T12:54:52;5.80;;;5.40;;
6223;SDS011;3145;42.726;23.342;2023-12-22T12:57:19;6.33;;;5.83;;
6223;SDS011;3145;42.726;23.342;2023-12-22T12:59:46;5.73;;;5.33;;
6223;SDS011;3145;42.726;23.342;2023-12-22T13:02:14;6.60;;;5.90;;
6223;SDS011;3145;42.726;23.342;2023-12-22T13:04:41;6.40;;;5.90;;
6223;SDS011;3145;42.726;23.342;2023-12-22T13:07:08;6.70;;;6.20;;
6223;SDS011;3145;42.726;23.342;2023-12-22T13:09:39;6.90;;;6.30;;
6223;SDS011;3145;42.726;23.342;2023-12-22T13:12:07;6.47;;;5.97;;
6223;SDS011;3145;42.726;23.342;2023-12-22T13:14:34;6.57;;;5.90;;
6223;SDS011;3145;42.726;23.342;2023-12-22T13:17:01;7.10;;;6.60;;
6223;SDS011;3145;42.726;23.342;2023-12-22T13:19:28;8.80;;;7.93;;
6223;SDS011;3145;42.726;23.342;2023-12-22T13:21:55;8.60;;;7.87;;
6223;SDS011;3145;42.726;23.342;2023-12-22T13:24:22;6.40;;;5.83;;
6223;SDS011;3145;42.726;23.342;2023-12-22T13:26:59;5.87;;;5.40;;
6223;SDS011;3145;42.726;23.342;2023-12-22T13:29:27;6.80;;;6.30;;
6223;SDS011;3145;42.726;23.342;2023-12-22T13:31:54;5.37;;;4.93;;
6223;SDS011;3145;42.726;23.342;2023-12-22T13:34:22;7.20;;;6.70;;
6223;SDS011;3145;42.726;23.342;2023-12-22T13:36:49;7.73;;;7.13;;
6223;SDS011;3145;42.726;23.342;2023-12-22T13:39:16;6.40;;;5.80;;
6223;SDS011;3145;42.726;23.342;2023-12-22T13:41:43;7.07;;;6.57;;
6223;SDS011;3145;42.726;23.342;2023-12-22T13:44:12;7.23;;;6.73;;
6223;SDS011;3145;42.726;23.342;2023-12-22T13:46:39;6.23;;;5.70;;
6223;SDS011;3145;42.726;23.342;2023-12-22T13:49:07;6.30;;;5.80;;
6223;SDS011;3145;42.726;23.342;2023-12-22T13:51:38;9.30;;;7.70;;
6223;SDS011;3145;42.726;23.342;2023-12-22T13:54:06;10.43;;;8.43;;
6223;SDS011;3145;42.726;23.342;2023-12-22T13:56:33;10.03;;;8.90;;
6223;SDS011;3145;42.726;23.342;2023-12-22T13:59:01;9.33;;;8.43;;
6223;SDS011;3145;42.726;23.342;2023-12-22T14:01:30;9.33;;;8.53;;
6223;SDS011;3145;42.726;23.342;2023-12-22T14:03:57;9.87;;;8.90;;
6223;SDS011;3145;42.726;23.342;2023-12-22T14:06:24;8.70;;;7.90;;
6223;SDS011;3145;42.726;23.342;2023-12-22T14:08:52;10.23;;;8.37;;
6223;SDS011;3145;42.726;23.342;2023-12-22T14:11:19;10.10;;;8.33;;
6223;SDS011;3145;42.726;23.342;2023-12-22T14:13:46;13.60;;;9.60;;
6223;SDS011;3145;42.726;23.342;2023-12-22T14:16:13;8.17;;;7.30;;
6223;SDS011;3145;42.726;23.342;2023-12-22T14:18:41;8.83;;;7.80;;
6223;SDS011;3145;42.726;23.342;2023-12-22T14:21:08;7.60;;;6.67;;
6223;SDS011;3145;42.726;23.342;2023-12-22T14:23:35;7.60;;;6.93;;
6223;SDS011;3145;42.726;23.342;2023-12-22T14:26:01;6.30;;;5.80;;
6223;SDS011;3145;42.726;23.342;2023-12-22T14:28:30;8.53;;;7.60;;
6223;SDS011;3145;42.726;23.342;2023-12-22T14:30:57;10.57;;;7.87;;
6223;SDS011;3145;42.726;23.342;2023-12-22T14:33:24;8.40;;;7.30;;
6223;SDS011;3145;42.726;23.342;2023-12-22T14:35:52;7.60;;;6.90;;
6223;SDS011;3145;42.726;23.342;2023-12-22T14:38:19;8.50;;;7.70;;